Hauptseite
METAR-TAF:

METAR-TAF

Flughäfen :

Olean, New York, Vereinigte Staaten

Breite: 42-14-28N, Länge: 078-22-17W, Höhe: 651 m

Beobachtung

Neuester Wetterbericht von vor 14 Minuten, um 09:35 UTC
Wind 5 kt aus Süd/Südwest
Temperatur 17°C
Luftfeuchtigkeit 94%
Luftdruck 1022 hPa
Sichtweite: 16.1 km
Himmel klar

METAR: KOLE 270935Z AUTO 20005KT 10SM CLR 17/16 A3019 RMK AO2

Zeit: 05:49 (09:49 UTC)


TAF: fehlend

Wetterbeobachtungen und Prognosen von mehr als 4000 Flughäfen (METAR und TAF Bericht).

Die verfügbaren Stationen werden durch gelbe und rote Markierungen auf der Karte dargestellt.

Führen Sie die Maus auf sie, um den Namen der Station zu sehen.

Darauf klicken, um die Beobachtung von Wetterbeobachtungen und Prognosen zu sehen.

Um die Karte zu ändern : klicken Sie auf den grünen Tasten mit einem schwarzen Kreuz Zum Vergrößern, auf den grünen Button mit einem Gedankenstrich zu verkleinern, oder auf die grünen Pfeile für benachbarte Karten.


METAR-TAF: